createdAt,value
2023-05-19T00:00:15.000Z,57.129032258063994
2023-05-19T00:01:18.000Z,57.32258064516076
2023-05-19T00:02:20.000Z,57.32258064516076
2023-05-19T00:03:23.000Z,57.22580645161238
2023-05-19T00:04:25.000Z,56.83870967741884
2023-05-19T00:05:27.000Z,56.935483870967225
2023-05-19T00:06:30.000Z,56.741935483870456
2023-05-19T00:07:32.000Z,57.129032258063994
2023-05-19T00:08:34.000Z,57.03225806451561
2023-05-19T00:09:36.000Z,56.83870967741884
2023-05-19T00:10:39.000Z,56.935483870967225
2023-05-19T00:11:41.000Z,56.35483870967692
2023-05-19T00:12:44.000Z,56.54838709677369
2023-05-19T00:13:46.000Z,56.54838709677369
2023-05-19T00:14:48.000Z,56.741935483870456
2023-05-19T00:15:51.000Z,56.741935483870456
2023-05-19T00:16:53.000Z,56.83870967741884
2023-05-19T00:17:55.000Z,56.741935483870456
2023-05-19T00:18:58.000Z,56.83870967741884
2023-05-19T00:20:00.000Z,56.935483870967225
2023-05-19T00:21:02.000Z,56.741935483870456
2023-05-19T00:22:05.000Z,56.54838709677369
2023-05-19T00:23:07.000Z,56.935483870967225
2023-05-19T00:24:09.000Z,57.22580645161238
2023-05-19T00:25:12.000Z,57.03225806451561
2023-05-19T00:26:14.000Z,57.03225806451561
2023-05-19T00:27:16.000Z,57.03225806451561
2023-05-19T00:28:19.000Z,57.03225806451561
2023-05-19T00:29:21.000Z,56.4516129032253
2023-05-19T00:30:23.000Z,57.03225806451561
2023-05-19T00:31:26.000Z,57.129032258063994
2023-05-19T00:32:28.000Z,57.129032258063994
2023-05-19T00:33:30.000Z,57.32258064516076
2023-05-19T00:34:33.000Z,57.22580645161238
2023-05-19T00:35:35.000Z,56.83870967741884
2023-05-19T00:36:37.000Z,56.741935483870456
2023-05-19T00:37:40.000Z,57.22580645161238
2023-05-19T00:38:42.000Z,56.83870967741884
2023-05-19T00:39:44.000Z,56.741935483870456
2023-05-19T00:40:47.000Z,56.4516129032253
2023-05-19T00:41:49.000Z,56.4516129032253
2023-05-19T00:42:51.000Z,56.35483870967692
2023-05-19T00:43:54.000Z,56.935483870967225
2023-05-19T00:44:56.000Z,56.741935483870456
2023-05-19T00:45:59.000Z,57.03225806451561
2023-05-19T00:47:01.000Z,56.54838709677369
2023-05-19T00:48:03.000Z,56.741935483870456
2023-05-19T00:49:06.000Z,56.4516129032253
2023-05-19T00:50:08.000Z,56.64516129032207
2023-05-19T00:51:10.000Z,57.03225806451561
2023-05-19T00:52:12.000Z,56.935483870967225
2023-05-19T00:53:15.000Z,57.03225806451561
2023-05-19T00:54:17.000Z,56.741935483870456
2023-05-19T00:55:20.000Z,56.741935483870456
2023-05-19T00:56:22.000Z,57.03225806451561
2023-05-19T00:57:24.000Z,57.129032258063994
2023-05-19T00:58:26.000Z,56.83870967741884
2023-05-19T00:59:29.000Z,57.22580645161238
2023-05-19T01:00:31.000Z,57.129032258063994
2023-05-19T01:01:34.000Z,57.03225806451561
2023-05-19T01:02:36.000Z,56.83870967741884
2023-05-19T01:03:38.000Z,56.741935483870456
2023-05-19T01:04:41.000Z,56.741935483870456
2023-05-19T01:05:43.000Z,56.64516129032207
2023-05-19T01:06:45.000Z,56.64516129032207
2023-05-19T01:07:47.000Z,56.4516129032253
2023-05-19T01:08:50.000Z,56.4516129032253
2023-05-19T01:09:52.000Z,56.64516129032207
2023-05-19T01:10:54.000Z,56.64516129032207
2023-05-19T01:11:57.000Z,56.64516129032207
2023-05-19T01:12:59.000Z,56.741935483870456
2023-05-19T01:14:01.000Z,56.64516129032207
2023-05-19T01:15:04.000Z,56.64516129032207
2023-05-19T01:16:06.000Z,56.064516129031766
2023-05-19T01:17:08.000Z,56.64516129032207
2023-05-19T01:18:11.000Z,56.741935483870456
2023-05-19T01:19:13.000Z,56.935483870967225
2023-05-19T01:20:15.000Z,56.83870967741884
2023-05-19T01:21:17.000Z,56.741935483870456
2023-05-19T01:22:20.000Z,56.935483870967225
2023-05-19T01:23:22.000Z,56.83870967741884
2023-05-19T01:24:24.000Z,56.935483870967225
2023-05-19T01:25:27.000Z,56.935483870967225
2023-05-19T01:26:29.000Z,56.935483870967225
2023-05-19T01:27:31.000Z,56.64516129032207
2023-05-19T01:28:33.000Z,56.935483870967225
2023-05-19T01:29:36.000Z,56.83870967741884
2023-05-19T01:30:38.000Z,57.03225806451561
2023-05-19T01:31:40.000Z,56.935483870967225
2023-05-19T01:32:43.000Z,56.64516129032207
2023-05-19T01:33:45.000Z,56.258064516128535
2023-05-19T01:34:47.000Z,56.741935483870456
2023-05-19T01:35:50.000Z,56.4516129032253
2023-05-19T01:36:52.000Z,56.64516129032207
2023-05-19T01:37:54.000Z,56.54838709677369
2023-05-19T01:38:57.000Z,56.741935483870456
2023-05-19T01:39:59.000Z,56.64516129032207
2023-05-19T01:41:02.000Z,56.741935483870456
2023-05-19T01:42:04.000Z,56.64516129032207
2023-05-19T01:43:06.000Z,56.35483870967692
2023-05-19T01:44:08.000Z,56.64516129032207
2023-05-19T01:45:11.000Z,56.741935483870456
2023-05-19T01:46:13.000Z,56.935483870967225
2023-05-19T01:47:16.000Z,57.03225806451561
2023-05-19T01:48:18.000Z,56.64516129032207
2023-05-19T01:49:20.000Z,56.83870967741884
2023-05-19T01:50:23.000Z,57.03225806451561
2023-05-19T01:51:25.000Z,57.03225806451561
2023-05-19T01:52:27.000Z,57.22580645161238
2023-05-19T01:53:30.000Z,57.03225806451561
2023-05-19T01:54:32.000Z,57.129032258063994
2023-05-19T01:55:34.000Z,57.03225806451561
2023-05-19T01:56:36.000Z,57.03225806451561
2023-05-19T01:57:39.000Z,57.129032258063994
2023-05-19T01:58:41.000Z,56.935483870967225
2023-05-19T01:59:43.000Z,56.935483870967225
2023-05-19T02:00:46.000Z,56.83870967741884
2023-05-19T02:01:48.000Z,56.741935483870456
2023-05-19T02:02:50.000Z,56.35483870967692
2023-05-19T02:03:53.000Z,56.258064516128535
2023-05-19T02:04:55.000Z,56.741935483870456
2023-05-19T02:05:57.000Z,56.741935483870456
2023-05-19T02:06:59.000Z,56.83870967741884
2023-05-19T02:08:02.000Z,56.741935483870456
2023-05-19T02:09:04.000Z,56.741935483870456
2023-05-19T02:10:07.000Z,56.64516129032207
2023-05-19T02:11:09.000Z,56.54838709677369
2023-05-19T02:12:11.000Z,56.83870967741884
2023-05-19T02:13:13.000Z,56.83870967741884
2023-05-19T02:14:16.000Z,56.935483870967225
2023-05-19T02:15:18.000Z,57.03225806451561
2023-05-19T02:16:21.000Z,56.935483870967225
2023-05-19T02:17:23.000Z,56.741935483870456
2023-05-19T02:18:25.000Z,57.03225806451561
2023-05-19T02:19:27.000Z,56.741935483870456
2023-05-19T02:20:35.000Z,57.129032258063994
2023-05-19T02:21:37.000Z,57.03225806451561
2023-05-19T02:22:39.000Z,56.935483870967225
2023-05-19T02:23:42.000Z,56.741935483870456
2023-05-19T02:24:44.000Z,56.741935483870456
2023-05-19T02:25:46.000Z,56.83870967741884
2023-05-19T02:26:49.000Z,56.54838709677369
2023-05-19T02:27:51.000Z,56.83870967741884
2023-05-19T02:28:53.000Z,56.64516129032207
2023-05-19T02:29:55.000Z,56.64516129032207
2023-05-19T02:30:58.000Z,56.54838709677369
2023-05-19T02:32:00.000Z,56.741935483870456
2023-05-19T02:33:02.000Z,56.64516129032207
2023-05-19T02:34:05.000Z,56.64516129032207
2023-05-19T02:35:07.000Z,56.741935483870456
2023-05-19T02:36:09.000Z,56.741935483870456
2023-05-19T02:37:12.000Z,56.64516129032207
2023-05-19T02:38:14.000Z,56.54838709677369
2023-05-19T02:39:16.000Z,56.4516129032253
2023-05-19T02:40:19.000Z,56.935483870967225
2023-05-19T02:41:21.000Z,56.741935483870456
2023-05-19T02:42:23.000Z,56.935483870967225
2023-05-19T02:43:26.000Z,57.03225806451561
2023-05-19T02:44:28.000Z,56.935483870967225
2023-05-19T02:45:30.000Z,56.64516129032207
2023-05-19T02:46:33.000Z,56.935483870967225
2023-05-19T02:47:35.000Z,57.03225806451561
2023-05-19T02:48:37.000Z,56.935483870967225
2023-05-19T02:49:40.000Z,56.741935483870456
2023-05-19T02:50:42.000Z,57.03225806451561
2023-05-19T02:51:44.000Z,57.03225806451561
2023-05-19T02:52:46.000Z,56.83870967741884
2023-05-19T02:53:49.000Z,56.741935483870456
2023-05-19T02:54:51.000Z,56.741935483870456
2023-05-19T02:55:54.000Z,56.4516129032253
2023-05-19T02:56:56.000Z,56.54838709677369
2023-05-19T02:57:58.000Z,56.741935483870456
2023-05-19T02:59:00.000Z,56.741935483870456
2023-05-19T03:00:03.000Z,56.64516129032207
2023-05-19T03:01:05.000Z,56.741935483870456
2023-05-19T03:02:07.000Z,56.54838709677369
2023-05-19T03:03:09.000Z,56.4516129032253
2023-05-19T03:04:12.000Z,56.741935483870456
2023-05-19T03:05:14.000Z,56.64516129032207
2023-05-19T03:06:17.000Z,56.935483870967225
2023-05-19T03:07:19.000Z,57.03225806451561
2023-05-19T03:08:21.000Z,56.83870967741884
2023-05-19T03:09:24.000Z,56.83870967741884
2023-05-19T03:10:26.000Z,56.935483870967225
2023-05-19T03:11:28.000Z,56.64516129032207
2023-05-19T03:12:31.000Z,56.935483870967225
2023-05-19T03:13:33.000Z,56.741935483870456
2023-05-19T03:14:35.000Z,57.03225806451561
2023-05-19T03:15:38.000Z,56.935483870967225
2023-05-19T03:16:40.000Z,56.83870967741884
2023-05-19T03:17:42.000Z,56.741935483870456
2023-05-19T03:18:45.000Z,56.935483870967225
2023-05-19T03:19:47.000Z,56.935483870967225
2023-05-19T03:20:49.000Z,56.4516129032253
2023-05-19T03:21:51.000Z,56.54838709677369
2023-05-19T03:22:54.000Z,56.741935483870456
2023-05-19T03:23:56.000Z,56.741935483870456
2023-05-19T03:24:58.000Z,56.4516129032253
2023-05-19T03:26:01.000Z,56.4516129032253
2023-05-19T03:27:03.000Z,56.64516129032207
2023-05-19T03:28:05.000Z,56.83870967741884
2023-05-19T03:29:08.000Z,56.64516129032207
2023-05-19T03:30:10.000Z,56.64516129032207
2023-05-19T03:31:13.000Z,56.54838709677369
2023-05-19T03:32:15.000Z,56.64516129032207
2023-05-19T03:33:17.000Z,56.741935483870456
2023-05-19T03:34:19.000Z,56.935483870967225
2023-05-19T03:35:22.000Z,57.129032258063994
2023-05-19T03:36:24.000Z,57.03225806451561
2023-05-19T03:37:26.000Z,57.03225806451561
2023-05-19T03:38:29.000Z,57.03225806451561
2023-05-19T03:39:31.000Z,56.64516129032207
2023-05-19T03:40:33.000Z,56.935483870967225
2023-05-19T03:41:36.000Z,57.129032258063994
2023-05-19T03:42:38.000Z,57.03225806451561
2023-05-19T03:43:40.000Z,56.935483870967225
2023-05-19T03:44:43.000Z,56.83870967741884
2023-05-19T03:45:45.000Z,56.741935483870456
2023-05-19T03:46:47.000Z,56.741935483870456
2023-05-19T03:47:50.000Z,56.741935483870456
2023-05-19T03:48:57.000Z,56.741935483870456
2023-05-19T03:49:59.000Z,56.35483870967692
2023-05-19T03:51:02.000Z,56.35483870967692
2023-05-19T03:52:04.000Z,56.64516129032207
2023-05-19T03:53:06.000Z,56.64516129032207
2023-05-19T03:54:09.000Z,56.83870967741884
2023-05-19T03:55:11.000Z,56.35483870967692
2023-05-19T03:56:13.000Z,56.64516129032207
2023-05-19T03:57:15.000Z,56.35483870967692
2023-05-19T03:58:18.000Z,56.35483870967692
2023-05-19T03:59:20.000Z,56.935483870967225
2023-05-19T04:00:22.000Z,57.03225806451561
2023-05-19T04:01:25.000Z,57.03225806451561
2023-05-19T04:02:27.000Z,57.03225806451561
2023-05-19T04:03:29.000Z,57.03225806451561
2023-05-19T04:04:32.000Z,56.741935483870456
2023-05-19T04:05:34.000Z,56.935483870967225
2023-05-19T04:06:36.000Z,57.03225806451561
2023-05-19T04:07:38.000Z,57.03225806451561
2023-05-19T04:08:41.000Z,57.03225806451561
2023-05-19T04:09:48.000Z,57.03225806451561
2023-05-19T04:10:50.000Z,56.83870967741884
2023-05-19T04:11:53.000Z,56.935483870967225
2023-05-19T04:12:55.000Z,56.83870967741884
2023-05-19T04:13:57.000Z,56.64516129032207
2023-05-19T04:15:00.000Z,56.83870967741884
2023-05-19T04:16:02.000Z,56.741935483870456
2023-05-19T04:17:04.000Z,56.4516129032253
2023-05-19T04:18:07.000Z,56.64516129032207
2023-05-19T04:19:09.000Z,56.35483870967692
2023-05-19T04:20:12.000Z,56.935483870967225
2023-05-19T04:21:14.000Z,56.741935483870456
2023-05-19T04:22:16.000Z,56.741935483870456
2023-05-19T04:23:18.000Z,56.64516129032207
2023-05-19T04:24:21.000Z,56.741935483870456
2023-05-19T04:25:23.000Z,56.741935483870456
2023-05-19T04:26:25.000Z,56.64516129032207
2023-05-19T04:27:28.000Z,57.03225806451561
2023-05-19T04:28:30.000Z,57.03225806451561
2023-05-19T04:29:32.000Z,57.03225806451561
2023-05-19T04:30:35.000Z,57.03225806451561
2023-05-19T04:31:37.000Z,56.935483870967225
2023-05-19T04:32:39.000Z,56.64516129032207
2023-05-19T04:33:42.000Z,57.03225806451561
2023-05-19T04:34:44.000Z,56.935483870967225
2023-05-19T04:35:46.000Z,57.22580645161238
2023-05-19T04:36:49.000Z,57.03225806451561
2023-05-19T04:37:51.000Z,56.64516129032207
2023-05-19T04:38:53.000Z,56.54838709677369
2023-05-19T04:39:56.000Z,56.83870967741884
2023-05-19T04:40:58.000Z,56.741935483870456
2023-05-19T04:42:00.000Z,56.35483870967692
2023-05-19T04:43:02.000Z,56.741935483870456
2023-05-19T04:44:05.000Z,56.54838709677369
2023-05-19T04:45:07.000Z,56.64516129032207
2023-05-19T04:46:09.000Z,56.741935483870456
2023-05-19T04:47:11.000Z,56.741935483870456
2023-05-19T04:48:14.000Z,56.64516129032207
2023-05-19T04:49:16.000Z,56.741935483870456
2023-05-19T04:50:19.000Z,56.54838709677369
2023-05-19T04:51:21.000Z,56.741935483870456
2023-05-19T04:52:23.000Z,57.03225806451561
2023-05-19T04:53:25.000Z,57.129032258063994
2023-05-19T04:54:28.000Z,57.03225806451561
2023-05-19T04:55:30.000Z,57.129032258063994
2023-05-19T04:56:33.000Z,57.03225806451561
2023-05-19T04:57:35.000Z,56.83870967741884
2023-05-19T04:58:37.000Z,57.129032258063994
2023-05-19T04:59:39.000Z,56.741935483870456
2023-05-19T05:00:42.000Z,56.935483870967225
2023-05-19T05:01:44.000Z,57.129032258063994
2023-05-19T05:02:46.000Z,57.32258064516076
2023-05-19T05:03:49.000Z,57.129032258063994
2023-05-19T05:04:51.000Z,56.741935483870456
2023-05-19T05:05:53.000Z,56.54838709677369
2023-05-19T05:06:56.000Z,56.54838709677369
2023-05-19T05:07:58.000Z,56.83870967741884
2023-05-19T05:09:00.000Z,57.129032258063994
2023-05-19T05:10:03.000Z,57.03225806451561
2023-05-19T05:11:05.000Z,56.83870967741884
2023-05-19T05:12:07.000Z,56.83870967741884
2023-05-19T05:13:10.000Z,56.741935483870456
2023-05-19T05:14:12.000Z,56.83870967741884
2023-05-19T05:15:15.000Z,56.83870967741884
2023-05-19T05:16:17.000Z,56.741935483870456
2023-05-19T05:17:19.000Z,56.4516129032253
2023-05-19T05:18:22.000Z,56.83870967741884
2023-05-19T05:19:24.000Z,57.03225806451561
2023-05-19T05:20:26.000Z,57.129032258063994
2023-05-19T05:21:28.000Z,57.129032258063994
2023-05-19T05:22:31.000Z,57.22580645161238
2023-05-19T05:23:33.000Z,57.129032258063994
2023-05-19T05:24:36.000Z,57.129032258063994
2023-05-19T05:25:38.000Z,57.51612903225753
2023-05-19T05:26:40.000Z,57.129032258063994
2023-05-19T05:27:43.000Z,57.129032258063994
2023-05-19T05:28:45.000Z,56.741935483870456
2023-05-19T05:29:47.000Z,56.83870967741884
2023-05-19T05:30:49.000Z,57.612903225805915
2023-05-19T05:31:52.000Z,57.32258064516076
2023-05-19T05:32:54.000Z,56.935483870967225
2023-05-19T05:33:56.000Z,56.935483870967225
2023-05-19T05:34:59.000Z,57.129032258063994
2023-05-19T05:36:01.000Z,56.64516129032207
2023-05-19T05:37:03.000Z,56.935483870967225
2023-05-19T05:38:06.000Z,56.4516129032253
2023-05-19T05:39:08.000Z,56.935483870967225
2023-05-19T05:40:10.000Z,56.935483870967225
2023-05-19T05:41:12.000Z,56.935483870967225
2023-05-19T05:42:15.000Z,57.03225806451561
2023-05-19T05:43:17.000Z,56.935483870967225
2023-05-19T05:44:20.000Z,56.935483870967225
2023-05-19T05:45:22.000Z,56.83870967741884
2023-05-19T05:46:24.000Z,56.83870967741884
2023-05-19T05:47:26.000Z,57.129032258063994
2023-05-19T05:48:29.000Z,56.741935483870456
2023-05-19T05:49:31.000Z,56.83870967741884
2023-05-19T05:50:34.000Z,57.129032258063994
2023-05-19T05:51:36.000Z,57.129032258063994
2023-05-19T05:52:38.000Z,57.22580645161238
2023-05-19T05:53:40.000Z,57.22580645161238
2023-05-19T05:54:43.000Z,57.32258064516076
2023-05-19T05:55:45.000Z,57.32258064516076
2023-05-19T05:56:47.000Z,57.22580645161238
2023-05-19T05:57:55.000Z,57.129032258063994
2023-05-19T05:58:57.000Z,56.83870967741884
2023-05-19T05:59:59.000Z,56.83870967741884
2023-05-19T06:01:07.000Z,57.129032258063994
2023-05-19T06:02:09.000Z,57.03225806451561
2023-05-19T06:03:11.000Z,56.935483870967225
2023-05-19T06:04:14.000Z,56.935483870967225
2023-05-19T06:05:16.000Z,56.935483870967225
2023-05-19T06:06:18.000Z,56.935483870967225
2023-05-19T06:07:21.000Z,56.83870967741884
2023-05-19T06:08:23.000Z,56.741935483870456
2023-05-19T06:09:25.000Z,56.83870967741884
2023-05-19T06:10:28.000Z,57.129032258063994
2023-05-19T06:11:30.000Z,57.129032258063994
2023-05-19T06:12:32.000Z,56.83870967741884
2023-05-19T06:13:35.000Z,57.22580645161238
2023-05-19T06:14:37.000Z,57.22580645161238
2023-05-19T06:15:39.000Z,57.129032258063994
2023-05-19T06:16:42.000Z,56.83870967741884
2023-05-19T06:17:44.000Z,57.32258064516076
2023-05-19T06:18:46.000Z,57.22580645161238
2023-05-19T06:19:49.000Z,57.32258064516076
2023-05-19T06:20:51.000Z,57.32258064516076
2023-05-19T06:21:53.000Z,57.32258064516076
2023-05-19T06:22:56.000Z,57.32258064516076
2023-05-19T06:23:58.000Z,56.741935483870456
2023-05-19T06:25:00.000Z,56.741935483870456
2023-05-19T06:26:03.000Z,56.935483870967225
2023-05-19T06:27:05.000Z,56.935483870967225
2023-05-19T06:28:07.000Z,56.83870967741884
2023-05-19T06:29:10.000Z,56.935483870967225
2023-05-19T06:30:12.000Z,56.935483870967225
2023-05-19T06:31:15.000Z,56.935483870967225
2023-05-19T06:32:17.000Z,56.83870967741884
2023-05-19T06:33:19.000Z,56.935483870967225
2023-05-19T06:34:21.000Z,56.54838709677369
2023-05-19T06:35:24.000Z,56.54838709677369
2023-05-19T06:36:26.000Z,56.64516129032207
2023-05-19T06:37:33.000Z,57.22580645161238
2023-05-19T06:38:36.000Z,57.129032258063994
2023-05-19T06:39:38.000Z,56.83870967741884
2023-05-19T06:40:40.000Z,56.64516129032207
2023-05-19T06:41:42.000Z,57.129032258063994
2023-05-19T06:42:45.000Z,57.129032258063994
2023-05-19T06:43:47.000Z,57.03225806451561
2023-05-19T06:44:49.000Z,57.22580645161238
2023-05-19T06:45:52.000Z,57.22580645161238
2023-05-19T06:46:54.000Z,57.32258064516076
2023-05-19T06:47:56.000Z,57.22580645161238
2023-05-19T06:48:59.000Z,56.935483870967225
2023-05-19T06:50:01.000Z,57.03225806451561
2023-05-19T06:51:03.000Z,56.83870967741884
2023-05-19T06:52:06.000Z,56.64516129032207
2023-05-19T06:53:08.000Z,56.64516129032207
2023-05-19T06:54:10.000Z,56.54838709677369
2023-05-19T06:55:13.000Z,56.741935483870456
2023-05-19T06:56:15.000Z,56.741935483870456
2023-05-19T06:57:17.000Z,56.83870967741884
2023-05-19T06:58:20.000Z,56.64516129032207
2023-05-19T06:59:22.000Z,56.935483870967225
2023-05-19T07:00:24.000Z,56.83870967741884
2023-05-19T07:01:26.000Z,56.935483870967225
2023-05-19T07:02:29.000Z,57.22580645161238
2023-05-19T07:03:31.000Z,57.22580645161238
2023-05-19T07:04:33.000Z,57.22580645161238
2023-05-19T07:05:36.000Z,56.83870967741884
2023-05-19T07:06:38.000Z,56.741935483870456
2023-05-19T07:07:40.000Z,56.83870967741884
2023-05-19T07:08:48.000Z,57.22580645161238
2023-05-19T07:09:50.000Z,57.32258064516076
2023-05-19T07:10:52.000Z,57.22580645161238
2023-05-19T07:11:55.000Z,57.32258064516076
2023-05-19T07:12:57.000Z,57.22580645161238
2023-05-19T07:13:59.000Z,56.741935483870456
2023-05-19T07:15:02.000Z,56.935483870967225
2023-05-19T07:16:04.000Z,56.935483870967225
2023-05-19T07:17:07.000Z,56.54838709677369
2023-05-19T07:18:09.000Z,56.83870967741884
2023-05-19T07:19:11.000Z,56.741935483870456
2023-05-19T07:20:14.000Z,57.03225806451561
2023-05-19T07:21:16.000Z,56.83870967741884
2023-05-19T07:22:18.000Z,56.54838709677369
2023-05-19T07:23:21.000Z,56.935483870967225
2023-05-19T07:24:23.000Z,56.83870967741884
2023-05-19T07:25:25.000Z,56.54838709677369
2023-05-19T07:26:27.000Z,56.54838709677369
2023-05-19T07:27:30.000Z,57.03225806451561
2023-05-19T07:28:32.000Z,57.129032258063994
2023-05-19T07:29:35.000Z,57.22580645161238
2023-05-19T07:30:37.000Z,57.22580645161238
2023-05-19T07:31:39.000Z,57.22580645161238
2023-05-19T07:32:41.000Z,57.32258064516076
2023-05-19T07:33:44.000Z,57.03225806451561
2023-05-19T07:34:46.000Z,57.03225806451561
2023-05-19T07:35:49.000Z,57.129032258063994
2023-05-19T07:36:51.000Z,57.129032258063994
2023-05-19T07:37:53.000Z,57.22580645161238
2023-05-19T07:38:56.000Z,56.935483870967225
2023-05-19T07:39:58.000Z,57.03225806451561
2023-05-19T07:41:00.000Z,56.83870967741884
2023-05-19T07:42:03.000Z,56.935483870967225
2023-05-19T07:43:05.000Z,56.935483870967225
2023-05-19T07:44:08.000Z,56.935483870967225
2023-05-19T07:45:10.000Z,56.935483870967225
2023-05-19T07:46:12.000Z,56.83870967741884
2023-05-19T07:47:15.000Z,56.935483870967225
2023-05-19T07:48:17.000Z,56.935483870967225
2023-05-19T07:49:20.000Z,56.935483870967225
2023-05-19T07:50:22.000Z,56.935483870967225
2023-05-19T07:51:24.000Z,56.935483870967225
2023-05-19T07:52:26.000Z,57.03225806451561
2023-05-19T07:53:29.000Z,56.935483870967225
2023-05-19T07:54:31.000Z,57.129032258063994
2023-05-19T07:55:34.000Z,57.129032258063994
2023-05-19T07:56:36.000Z,56.83870967741884
2023-05-19T07:57:38.000Z,56.54838709677369
2023-05-19T07:58:40.000Z,56.935483870967225
2023-05-19T07:59:43.000Z,57.32258064516076
2023-05-19T08:00:45.000Z,57.22580645161238
2023-05-19T08:01:47.000Z,57.22580645161238
2023-05-19T08:02:50.000Z,57.22580645161238
2023-05-19T08:03:52.000Z,57.129032258063994
2023-05-19T08:04:54.000Z,57.32258064516076
2023-05-19T08:05:57.000Z,57.129032258063994
2023-05-19T08:06:59.000Z,57.32258064516076
2023-05-19T08:08:01.000Z,57.32258064516076
2023-05-19T08:09:04.000Z,56.64516129032207
2023-05-19T08:10:06.000Z,57.03225806451561
2023-05-19T08:11:08.000Z,56.935483870967225
2023-05-19T08:12:11.000Z,57.22580645161238
2023-05-19T08:13:13.000Z,56.741935483870456
2023-05-19T08:14:15.000Z,57.03225806451561
2023-05-19T08:15:17.000Z,56.83870967741884
2023-05-19T08:16:20.000Z,56.54838709677369
2023-05-19T08:17:22.000Z,56.64516129032207
2023-05-19T08:18:24.000Z,57.03225806451561
2023-05-19T08:19:27.000Z,56.935483870967225
2023-05-19T08:20:29.000Z,56.935483870967225
2023-05-19T08:21:31.000Z,56.935483870967225
2023-05-19T08:22:34.000Z,57.22580645161238
2023-05-19T08:23:36.000Z,57.32258064516076
2023-05-19T08:24:38.000Z,57.51612903225753
2023-05-19T08:25:41.000Z,57.22580645161238
2023-05-19T08:26:43.000Z,56.83870967741884
2023-05-19T08:27:45.000Z,57.129032258063994
2023-05-19T08:28:47.000Z,57.612903225805915
2023-05-19T08:29:50.000Z,57.612903225805915
2023-05-19T08:30:52.000Z,57.22580645161238
2023-05-19T08:31:54.000Z,57.32258064516076
2023-05-19T08:32:57.000Z,57.32258064516076
2023-05-19T08:33:59.000Z,57.22580645161238
2023-05-19T08:35:01.000Z,57.32258064516076
2023-05-19T08:36:04.000Z,57.03225806451561
2023-05-19T08:37:06.000Z,57.129032258063994
2023-05-19T08:38:08.000Z,56.54838709677369
2023-05-19T08:39:10.000Z,57.03225806451561
2023-05-19T08:40:13.000Z,56.935483870967225
2023-05-19T08:41:15.000Z,57.03225806451561
2023-05-19T08:42:17.000Z,57.03225806451561
2023-05-19T08:43:20.000Z,57.03225806451561
2023-05-19T08:44:22.000Z,57.03225806451561
2023-05-19T08:45:24.000Z,56.64516129032207
2023-05-19T08:46:27.000Z,56.54838709677369
2023-05-19T08:47:29.000Z,56.64516129032207
2023-05-19T08:48:31.000Z,56.54838709677369
2023-05-19T08:49:33.000Z,56.83870967741884
2023-05-19T08:50:36.000Z,56.741935483870456
2023-05-19T08:51:38.000Z,56.83870967741884
2023-05-19T08:52:41.000Z,57.22580645161238
2023-05-19T08:53:43.000Z,57.32258064516076
2023-05-19T08:54:45.000Z,57.32258064516076
2023-05-19T08:55:47.000Z,56.935483870967225
2023-05-19T08:56:50.000Z,57.32258064516076
2023-05-19T08:57:52.000Z,57.32258064516076
2023-05-19T08:58:54.000Z,57.22580645161238
2023-05-19T08:59:57.000Z,57.32258064516076
2023-05-19T09:00:59.000Z,57.41935483870915
2023-05-19T09:02:01.000Z,57.32258064516076
2023-05-19T09:03:04.000Z,57.41935483870915
2023-05-19T09:04:07.000Z,57.129032258063994
2023-05-19T09:05:10.000Z,57.03225806451561
2023-05-19T09:06:12.000Z,57.03225806451561
2023-05-19T09:07:14.000Z,57.129032258063994
2023-05-19T09:08:16.000Z,57.03225806451561
2023-05-19T09:09:19.000Z,57.22580645161238
2023-05-19T09:10:21.000Z,57.03225806451561
2023-05-19T09:11:23.000Z,57.129032258063994
2023-05-19T09:12:26.000Z,57.129032258063994
2023-05-19T09:13:28.000Z,56.54838709677369
2023-05-19T09:14:30.000Z,56.741935483870456
2023-05-19T09:15:33.000Z,56.64516129032207
2023-05-19T09:16:35.000Z,56.741935483870456
2023-05-19T09:17:38.000Z,57.32258064516076
2023-05-19T09:18:40.000Z,57.03225806451561
2023-05-19T09:19:42.000Z,57.129032258063994
2023-05-19T09:20:49.000Z,57.612903225805915
2023-05-19T09:21:52.000Z,57.41935483870915
2023-05-19T09:22:54.000Z,57.32258064516076
2023-05-19T09:23:56.000Z,57.51612903225753
2023-05-19T09:24:59.000Z,57.806451612902684
2023-05-19T09:26:01.000Z,57.129032258063994
2023-05-19T09:27:04.000Z,57.51612903225753
2023-05-19T09:28:06.000Z,57.03225806451561
2023-05-19T09:29:08.000Z,56.935483870967225
2023-05-19T09:30:10.000Z,56.83870967741884
2023-05-19T09:31:13.000Z,57.22580645161238
2023-05-19T09:32:15.000Z,57.03225806451561
2023-05-19T09:33:17.000Z,57.129032258063994